Time;durP1;ratioP1;P1;durP2;ratioP2;P2;SDS_P1;SDS_P2;PMS_P1;PMS_P2;Temp;Humidity;BMP_temperature;BMP_pressure;BME280_temperature;BME280_humidity;BME280_pressure;Samples;Min_cycle;Max_cycle;Signal;HPM_P1;HPM_P2
2023/12/07 00:00:34;;;;;;;9.03;6.73;;;4.90;99.90;;;;;;5067929;28;20185;-89
2023/12/07 00:03:00;;;;;;;8.10;7.20;;;5.00;99.90;;;;;;5063060;28;20195;-89
2023/12/07 00:05:26;;;;;;;10.90;6.67;;;4.80;99.90;;;;;;5058456;28;20239;-89
2023/12/07 00:07:51;;;;;;;7.17;6.47;;;5.10;99.90;;;;;;5060158;28;20908;-89
2023/12/07 00:10:17;;;;;;;8.20;6.70;;;4.80;99.90;;;;;;5058935;28;20188;-89
2023/12/07 00:12:42;;;;;;;7.50;6.37;;;4.80;99.90;;;;;;5060328;28;20266;-89
2023/12/07 00:15:08;;;;;;;6.60;6.00;;;5.00;99.90;;;;;;5059945;28;20257;-89
2023/12/07 00:17:34;;;;;;;8.03;6.90;;;4.80;99.90;;;;;;5052736;28;20217;-89
2023/12/07 00:19:59;;;;;;;7.23;6.50;;;4.90;99.90;;;;;;5067316;28;20223;-89
2023/12/07 00:22:26;;;;;;;7.57;6.40;;;4.80;99.90;;;;;;5055061;28;20220;-89
2023/12/07 00:24:52;;;;;;;7.90;6.30;;;4.90;99.90;;;;;;5068199;28;20664;-89
2023/12/07 00:27:17;;;;;;;7.37;6.50;;;5.10;99.90;;;;;;5058630;28;20194;-89
2023/12/07 00:29:43;;;;;;;9.53;6.13;;;4.70;99.90;;;;;;5056551;28;20179;-89
2023/12/07 00:32:08;;;;;;;8.47;6.70;;;4.80;99.90;;;;;;5058583;28;20179;-89
2023/12/07 00:34:34;;;;;;;8.70;7.47;;;5.00;99.90;;;;;;5057725;28;20208;-89
2023/12/07 00:36:59;;;;;;;9.00;6.60;;;4.80;99.90;;;;;;5065483;28;20192;-89
2023/12/07 00:39:25;;;;;;;7.20;6.10;;;5.00;99.90;;;;;;5078845;28;20226;-89
2023/12/07 00:41:50;;;;;;;7.20;6.40;;;5.20;99.90;;;;;;5068424;28;20197;-89
2023/12/07 00:44:16;;;;;;;10.93;7.07;;;5.40;99.90;;;;;;5058986;28;20211;-89
2023/12/07 00:46:41;;;;;;;8.40;6.70;;;5.30;99.90;;;;;;5050975;28;20223;-89
2023/12/07 00:49:07;;;;;;;6.47;5.87;;;5.00;99.90;;;;;;5062111;28;20182;-89
2023/12/07 00:51:32;;;;;;;8.77;6.37;;;4.30;99.90;;;;;;5044812;28;20203;-89
2023/12/07 00:53:58;;;;;;;6.97;6.27;;;4.70;99.90;;;;;;5058916;28;20233;-89
2023/12/07 00:56:24;;;;;;;6.97;5.80;;;4.60;99.90;;;;;;5064522;28;20211;-89
2023/12/07 00:58:50;;;;;;;6.80;5.38;;;5.00;99.90;;;;;;5059003;28;20211;-89
2023/12/07 01:01:15;;;;;;;6.30;5.70;;;4.90;99.90;;;;;;5061705;28;20187;-89
2023/12/07 01:03:41;;;;;;;5.60;5.10;;;5.10;99.90;;;;;;5068427;28;20211;-89
2023/12/07 01:06:11;;;;;;;7.30;5.20;;;4.90;99.90;;;;;;5064159;28;20316;-89
2023/12/07 01:08:37;;;;;;;6.90;5.45;;;4.90;99.90;;;;;;5062382;28;20182;-89
2023/12/07 01:11:03;;;;;;;7.03;5.97;;;4.90;99.90;;;;;;5057181;28;20181;-89
2023/12/07 01:13:30;;;;;;;6.53;5.25;;;5.20;99.90;;;;;;5062064;28;20860;-89
2023/12/07 01:15:55;;;;;;;6.80;5.40;;;5.10;99.90;;;;;;5061388;28;20184;-89
2023/12/07 01:18:21;;;;;;;6.03;5.43;;;5.10;99.90;;;;;;5055064;28;20581;-89
2023/12/07 01:20:47;;;;;;;6.20;5.60;;;5.00;99.90;;;;;;5061242;28;20201;-89
2023/12/07 01:23:13;;;;;;;8.55;5.35;;;5.10;99.90;;;;;;5065634;28;20202;-89
2023/12/07 01:25:39;;;;;;;7.30;5.00;;;5.40;99.90;;;;;;5064069;28;20613;-89
2023/12/07 01:28:05;;;;;;;4.60;4.20;;;4.90;99.90;;;;;;5066898;28;20438;-89
2023/12/07 01:30:30;;;;;;;5.77;4.90;;;5.40;99.90;;;;;;5061831;28;20985;-89
2023/12/07 01:32:56;;;;;;;6.80;5.20;;;5.00;99.90;;;;;;5063201;28;21254;-89
2023/12/07 01:35:21;;;;;;;5.40;4.90;;;5.20;99.90;;;;;;5067772;28;20297;-89
2023/12/07 01:37:47;;;;;;;4.93;4.53;;;5.00;99.90;;;;;;5051506;28;20622;-89
2023/12/07 01:40:14;;;;;;;5.30;4.80;;;5.30;99.90;;;;;;5067324;28;20200;-89
2023/12/07 01:42:49;;;;;;;7.00;5.53;;;5.00;99.90;;;;;;5062126;28;20204;-89
2023/12/07 01:45:15;;;;;;;7.45;5.75;;;4.70;99.90;;;;;;5064310;28;20238;-89
2023/12/07 01:47:41;;;;;;;5.10;4.50;;;5.00;99.90;;;;;;5090801;28;20180;-89
2023/12/07 01:50:08;;;;;;;5.43;4.88;;;5.30;99.90;;;;;;5087383;28;20192;-89
2023/12/07 01:52:38;;;;;;;5.60;4.97;;;4.80;99.90;;;;;;5073221;28;20200;-89
2023/12/07 01:55:05;;;;;;;5.60;4.78;;;4.70;99.90;;;;;;5061924;28;20204;-89
2023/12/07 01:57:30;;;;;;;5.07;4.22;;;4.80;99.90;;;;;;5062747;28;20180;-89
2023/12/07 01:59:56;;;;;;;6.87;4.87;;;4.80;99.90;;;;;;5058155;28;20270;-89
2023/12/07 02:02:21;;;;;;;6.87;4.90;;;5.00;99.90;;;;;;5066384;28;20203;-89
2023/12/07 02:04:47;;;;;;;5.50;5.00;;;4.90;99.90;;;;;;5076434;28;20214;-88
2023/12/07 02:07:13;;;;;;;7.27;4.87;;;4.90;99.90;;;;;;5061137;28;20183;-89
2023/12/07 02:09:38;;;;;;;6.43;5.13;;;4.70;99.90;;;;;;5064781;28;20181;-89
2023/12/07 02:12:04;;;;;;;6.10;5.40;;;5.10;99.90;;;;;;5057526;28;20199;-89
2023/12/07 02:14:30;;;;;;;6.97;5.50;;;4.60;99.90;;;;;;5058586;28;20212;-89
2023/12/07 02:17:07;;;;;;;5.67;5.07;;;4.60;99.90;;;;;;5063141;28;20189;-89
2023/12/07 02:19:51;;;;;;;7.00;5.30;;;4.90;99.90;;;;;;5078041;28;20302;-89
2023/12/07 02:22:21;;;;;;;6.15;5.55;;;3.80;99.90;;;;;;5070368;28;20216;-89
2023/12/07 02:25:09;;;;;;;6.05;5.07;;;4.80;99.90;;;;;;5086625;28;20215;-89
2023/12/07 02:27:39;;;;;;;6.68;5.20;;;4.30;99.90;;;;;;5074246;28;20189;-89
2023/12/07 02:30:06;;;;;;;6.05;4.90;;;4.50;99.90;;;;;;5075223;28;20194;-89
2023/12/07 02:32:32;;;;;;;6.72;5.20;;;4.20;99.90;;;;;;5073527;28;20175;-89
2023/12/07 02:34:58;;;;;;;6.53;5.18;;;4.30;99.90;;;;;;5065582;28;20196;-89
2023/12/07 02:37:28;;;;;;;6.10;5.50;;;4.10;99.90;;;;;;5062279;28;20539;-89
2023/12/07 02:39:56;;;;;;;5.97;5.47;;;4.00;99.90;;;;;;5057198;28;20564;-89
2023/12/07 02:42:23;;;;;;;7.35;5.60;;;3.80;99.90;;;;;;5056142;28;20186;-89
2023/12/07 02:44:52;;;;;;;5.88;5.28;;;3.60;99.90;;;;;;5059661;28;20214;-88
2023/12/07 02:47:18;;;;;;;7.50;5.50;;;4.00;99.90;;;;;;5076953;28;20201;-89
2023/12/07 02:49:44;;;;;;;6.23;5.43;;;3.50;99.90;;;;;;5065083;28;20362;-89
2023/12/07 02:52:09;;;;;;;8.27;5.87;;;3.70;99.90;;;;;;5071155;28;20226;-89
2023/12/07 02:54:35;;;;;;;8.60;5.83;;;3.60;99.90;;;;;;5083909;28;20182;-88
2023/12/07 02:57:00;;;;;;;6.60;5.87;;;3.50;99.90;;;;;;5086063;28;20190;-89
2023/12/07 02:59:26;;;;;;;7.70;6.13;;;3.50;99.90;;;;;;5083135;28;20206;-89
2023/12/07 03:01:51;;;;;;;7.60;5.80;;;3.30;99.90;;;;;;5062684;28;20179;-89
2023/12/07 03:04:17;;;;;;;6.83;4.83;;;3.50;99.90;;;;;;5072374;28;20230;-89
2023/12/07 03:06:42;;;;;;;6.57;5.27;;;3.90;99.90;;;;;;5056759;28;20233;-89
2023/12/07 03:09:08;;;;;;;5.93;5.37;;;3.80;99.90;;;;;;5060646;28;20230;-89
2023/12/07 03:11:34;;;;;;;6.73;5.60;;;3.20;99.90;;;;;;5060069;28;20269;-89
2023/12/07 03:13:59;;;;;;;7.10;5.70;;;3.50;99.90;;;;;;5057432;28;20207;-89
2023/12/07 03:16:25;;;;;;;7.80;5.83;;;3.40;99.90;;;;;;5071488;28;20478;-89
2023/12/07 03:18:50;;;;;;;13.10;6.10;;;3.30;99.90;;;;;;5062086;28;20213;-89
2023/12/07 03:21:16;;;;;;;6.17;5.00;;;3.80;99.90;;;;;;5057726;28;20224;-89
2023/12/07 03:23:41;;;;;;;7.93;5.20;;;3.90;99.90;;;;;;5066729;28;20194;-89
2023/12/07 03:26:07;;;;;;;5.97;5.37;;;3.90;99.90;;;;;;5062837;28;20258;-89
2023/12/07 03:28:33;;;;;;;6.53;5.27;;;3.80;99.90;;;;;;5061292;28;20186;-89
2023/12/07 03:30:58;;;;;;;6.30;5.60;;;3.50;99.90;;;;;;5062011;28;20235;-89
2023/12/07 03:33:24;;;;;;;7.13;6.40;;;3.50;99.90;;;;;;5059536;28;20209;-89
2023/12/07 03:35:49;;;;;;;5.43;4.93;;;3.90;99.90;;;;;;5066000;28;20202;-89
2023/12/07 03:38:15;;;;;;;5.83;5.23;;;3.50;99.90;;;;;;5076233;28;20195;-87
2023/12/07 03:40:40;;;;;;;7.53;5.93;;;3.70;99.90;;;;;;5081492;28;20204;-87
2023/12/07 03:43:06;;;;;;;7.43;6.20;;;3.20;99.90;;;;;;5080131;28;20182;-88
2023/12/07 03:45:31;;;;;;;6.20;5.53;;;3.40;99.90;;;;;;5083878;28;20185;-89
2023/12/07 03:47:57;;;;;;;7.50;6.07;;;3.30;99.90;;;;;;5081181;28;20163;-89
2023/12/07 03:50:22;;;;;;;7.50;5.63;;;3.60;99.90;;;;;;5075666;28;20190;-89
2023/12/07 03:52:48;;;;;;;7.23;6.07;;;3.10;99.90;;;;;;5061514;28;20592;-89
2023/12/07 03:55:13;;;;;;;7.20;5.90;;;3.30;99.90;;;;;;5066345;28;20244;-89
2023/12/07 03:57:39;;;;;;;9.33;6.17;;;3.40;99.90;;;;;;5073775;28;20185;-88
2023/12/07 04:00:09;;;;;;;8.10;6.63;;;3.20;99.90;;;;;;5069326;28;20278;-89
2023/12/07 04:02:34;;;;;;;8.00;6.20;;;3.20;99.90;;;;;;5059189;28;20194;-89
2023/12/07 04:05:01;;;;;;;7.00;6.03;;;3.50;99.90;;;;;;5060795;28;20274;-88
2023/12/07 04:07:29;;;;;;;7.63;6.32;;;3.00;99.90;;;;;;5057535;28;20180;-89
2023/12/07 04:09:55;;;;;;;7.82;7.03;;;3.60;99.90;;;;;;5059704;28;20530;-88
2023/12/07 04:12:20;;;;;;;6.83;5.60;;;3.10;99.90;;;;;;5056708;28;20192;-88
2023/12/07 04:14:46;;;;;;;9.60;6.10;;;3.40;99.90;;;;;;5059401;28;20506;-88
2023/12/07 04:17:11;;;;;;;9.63;7.17;;;3.10;99.90;;;;;;5059219;28;20214;-88
2023/12/07 04:19:37;;;;;;;11.97;6.97;;;3.30;99.90;;;;;;5052941;28;20810;-88
2023/12/07 04:22:03;;;;;;;7.90;5.83;;;3.20;99.90;;;;;;5054072;28;20270;-88
2023/12/07 04:24:29;;;;;;;7.80;6.43;;;2.90;99.90;;;;;;5071423;28;20763;-88
2023/12/07 04:26:55;;;;;;;8.80;7.10;;;3.30;99.90;;;;;;5061483;28;20186;-88
2023/12/07 04:29:20;;;;;;;8.32;6.10;;;3.00;99.90;;;;;;5056746;28;20191;-88
2023/12/07 04:31:46;;;;;;;9.10;7.50;;;2.80;99.90;;;;;;5059196;28;20186;-88
2023/12/07 04:34:11;;;;;;;7.93;7.13;;;2.80;99.90;;;;;;5089006;28;20184;-88
2023/12/07 04:36:37;;;;;;;9.03;6.90;;;2.80;99.90;;;;;;5079539;28;20163;-88
2023/12/07 04:39:03;;;;;;;8.97;6.40;;;2.60;99.90;;;;;;5085128;28;20770;-88
2023/12/07 04:41:28;;;;;;;10.38;7.53;;;2.60;99.90;;;;;;5081133;28;20161;-89
2023/12/07 04:43:54;;;;;;;8.87;6.70;;;2.60;99.90;;;;;;5078549;28;20211;-89
2023/12/07 04:46:20;;;;;;;7.63;6.83;;;2.70;99.90;;;;;;5084707;28;20291;-88
2023/12/07 04:48:45;;;;;;;9.33;7.10;;;2.30;99.90;;;;;;5076843;28;20177;-89
2023/12/07 04:51:11;;;;;;;10.10;7.67;;;2.60;99.90;;;;;;5066415;28;20193;-88
2023/12/07 04:53:36;;;;;;;11.50;8.23;;;2.40;99.90;;;;;;5078625;28;20213;-89
2023/12/07 04:56:02;;;;;;;9.23;7.70;;;2.20;99.90;;;;;;5080425;28;20190;-88
2023/12/07 04:58:28;;;;;;;9.43;7.40;;;2.20;99.90;;;;;;5072776;28;20302;-88
2023/12/07 05:00:53;;;;;;;8.90;7.07;;;2.10;99.90;;;;;;5075176;28;20189;-89
2023/12/07 05:03:19;;;;;;;12.03;8.10;;;2.20;99.90;;;;;;5080286;28;20166;-89
2023/12/07 05:05:44;;;;;;;10.60;8.23;;;2.30;99.90;;;;;;5068527;28;20177;-88
2023/12/07 05:08:10;;;;;;;8.20;7.40;;;2.40;99.90;;;;;;5063680;28;20231;-88
2023/12/07 05:10:36;;;;;;;9.70;8.50;;;2.10;99.90;;;;;;5062209;28;20192;-88
2023/12/07 05:13:01;;;;;;;7.77;6.97;;;2.50;99.90;;;;;;5059757;28;20185;-88
2023/12/07 05:15:28;;;;;;;9.83;7.60;;;2.10;99.90;;;;;;5063813;28;20227;-88
2023/12/07 05:17:53;;;;;;;10.20;8.32;;;2.20;99.90;;;;;;5054527;28;20201;-90
2023/12/07 05:20:22;;;;;;;10.33;7.77;;;2.10;99.90;;;;;;5057325;28;20209;-88
2023/12/07 05:22:48;;;;;;;10.52;7.70;;;2.00;99.90;;;;;;5052128;28;20646;-88
2023/12/07 05:25:13;;;;;;;8.67;7.33;;;2.00;99.90;;;;;;5057288;28;20216;-88
2023/12/07 05:27:39;;;;;;;10.90;7.93;;;2.00;99.90;;;;;;5054918;28;20198;-90
2023/12/07 05:30:05;;;;;;;10.57;7.77;;;2.00;99.90;;;;;;5057306;28;20177;-88
2023/12/07 05:32:31;;;;;;;11.23;8.20;;;2.20;99.90;;;;;;5060439;28;20657;-89
2023/12/07 05:34:56;;;;;;;11.87;8.10;;;2.10;99.90;;;;;;5058349;28;20219;-89
2023/12/07 05:37:22;;;;;;;14.63;8.13;;;1.80;99.90;;;;;;5058167;28;20182;-89
2023/12/07 05:39:49;;;;;;;10.87;7.40;;;1.90;99.90;;;;;;5063173;28;20212;-89
2023/12/07 05:42:14;;;;;;;12.32;8.77;;;1.80;99.90;;;;;;5064489;28;20242;-89
2023/12/07 05:44:40;;;;;;;12.40;8.57;;;1.90;99.90;;;;;;5058563;28;20209;-89
2023/12/07 05:47:05;;;;;;;11.00;8.33;;;1.80;99.90;;;;;;5060548;28;20191;-89
2023/12/07 05:49:32;;;;;;;9.40;7.70;;;2.00;99.90;;;;;;5042517;28;20186;-89
2023/12/07 05:51:57;;;;;;;12.15;9.27;;;1.90;99.90;;;;;;5060602;28;20654;-89
2023/12/07 05:54:23;;;;;;;11.07;8.23;;;2.00;99.90;;;;;;5059870;28;20213;-89
2023/12/07 05:56:49;;;;;;;11.10;8.73;;;2.10;99.90;;;;;;5060745;28;20655;-89
2023/12/07 05:59:15;;;;;;;10.48;8.35;;;0.90;99.90;;;;;;5057610;28;20209;-89
2023/12/07 06:01:40;;;;;;;11.43;9.00;;;2.00;99.90;;;;;;5057478;28;20595;-89
2023/12/07 06:04:09;;;;;;;12.83;8.20;;;1.50;99.90;;;;;;5067199;28;20572;-89
2023/12/07 06:06:34;;;;;;;17.55;9.77;;;1.70;99.90;;;;;;5058806;28;20212;-88
2023/12/07 06:09:00;;;;;;;11.10;8.63;;;1.60;99.90;;;;;;5062062;28;20188;-89
2023/12/07 06:11:25;;;;;;;10.60;8.63;;;1.50;99.90;;;;;;5057856;28;20185;-89
2023/12/07 06:13:51;;;;;;;9.50;8.27;;;1.50;99.90;;;;;;5068512;28;20204;-88
2023/12/07 06:16:18;;;;;;;10.43;8.20;;;1.60;99.90;;;;;;5044486;28;20281;-88
2023/12/07 06:18:44;;;;;;;13.55;9.38;;;1.90;99.90;;;;;;5059522;28;20201;-88
2023/12/07 06:21:09;;;;;;;12.77;9.23;;;1.50;99.90;;;;;;5067353;28;20190;-89
2023/12/07 06:23:35;;;;;;;13.70;9.97;;;1.40;99.90;;;;;;5061552;28;20682;-89
2023/12/07 06:26:01;;;;;;;12.63;9.30;;;1.20;99.90;;;;;;5067668;28;20269;-89
2023/12/07 06:28:27;;;;;;;10.90;8.80;;;1.30;99.90;;;;;;5065320;28;20214;-89
2023/12/07 06:30:53;;;;;;;12.47;8.30;;;1.30;99.90;;;;;;5073408;28;20185;-89
2023/12/07 06:33:18;;;;;;;11.97;8.73;;;1.30;99.90;;;;;;5075847;28;21025;-88
2023/12/07 06:35:47;;;;;;;11.43;9.00;;;1.30;99.90;;;;;;5062691;28;20230;-88
2023/12/07 06:38:12;;;;;;;11.63;9.15;;;1.50;99.90;;;;;;5063670;28;20289;-88
2023/12/07 06:40:38;;;;;;;12.43;9.13;;;1.60;99.90;;;;;;5065316;28;20657;-89
2023/12/07 06:43:06;;;;;;;10.50;8.73;;;1.30;99.90;;;;;;5059460;28;20185;-90
2023/12/07 06:45:33;;;;;;;10.32;9.10;;;1.20;99.90;;;;;;5060617;28;20613;-89
2023/12/07 06:47:58;;;;;;;11.30;8.98;;;1.90;99.90;;;;;;5064697;28;20651;-90
2023/12/07 06:50:24;;;;;;;10.77;9.47;;;1.40;99.90;;;;;;5060900;28;20204;-88
2023/12/07 06:52:50;;;;;;;12.00;8.80;;;1.60;99.90;;;;;;5062995;28;20240;-88
2023/12/07 06:55:15;;;;;;;11.40;8.50;;;1.40;99.90;;;;;;5060011;28;20213;-90
2023/12/07 06:57:41;;;;;;;10.00;8.13;;;1.40;99.90;;;;;;5057385;28;20187;-79
2023/12/07 07:00:10;;;;;;;13.60;8.57;;;1.30;99.90;;;;;;5062212;28;20328;-81
2023/12/07 07:02:37;;;;;;;12.95;9.00;;;1.40;99.90;;;;;;5061344;28;20212;-81
2023/12/07 07:05:03;;;;;;;13.02;9.00;;;1.50;99.90;;;;;;5062006;28;20201;-81
2023/12/07 07:07:31;;;;;;;11.80;8.67;;;1.40;99.90;;;;;;5069915;28;20180;-81
2023/12/07 07:09:57;;;;;;;13.55;10.50;;;1.60;99.90;;;;;;5083711;28;20712;-88
2023/12/07 07:12:23;;;;;;;13.77;11.70;;;1.90;99.90;;;;;;5080487;28;20622;-86
2023/12/07 07:14:48;;;;;;;16.17;10.23;;;1.50;99.90;;;;;;5077490;28;20220;-87
2023/12/07 07:17:15;;;;;;;14.07;10.10;;;1.20;99.90;;;;;;5073086;28;20615;-88
2023/12/07 07:19:41;;;;;;;13.20;9.68;;;2.00;99.90;;;;;;5062017;28;20529;-89
2023/12/07 07:22:08;;;;;;;11.02;9.25;;;1.70;99.90;;;;;;5067640;28;20173;-89
2023/12/07 07:24:34;;;;;;;12.55;9.05;;;1.80;99.90;;;;;;5053731;28;20209;-88
2023/12/07 07:27:00;;;;;;;12.50;10.07;;;1.10;99.90;;;;;;5065909;28;20340;-89
2023/12/07 07:29:26;;;;;;;11.90;9.10;;;1.30;99.90;;;;;;5053779;28;20181;-88
2023/12/07 07:31:52;;;;;;;13.20;10.30;;;1.20;99.90;;;;;;5062434;28;20267;-89
2023/12/07 07:34:18;;;;;;;11.85;9.38;;;1.70;99.90;;;;;;5066900;28;20292;-89
2023/12/07 07:36:44;;;;;;;13.90;9.93;;;1.20;99.90;;;;;;5072331;28;20219;-89
2023/12/07 07:39:09;;;;;;;12.73;9.50;;;1.10;99.90;;;;;;5086106;28;20193;-89
2023/12/07 07:41:36;;;;;;;11.87;9.90;;;1.20;99.90;;;;;;5076294;28;20184;-87
2023/12/07 07:44:04;;;;;;;15.80;10.48;;;1.30;99.90;;;;;;5060743;28;20204;-90
2023/12/07 07:46:29;;;;;;;15.50;9.93;;;1.30;99.90;;;;;;5051317;28;20185;-89
2023/12/07 07:48:55;;;;;;;15.30;10.23;;;1.40;99.90;;;;;;5075978;28;20193;-89
2023/12/07 07:51:21;;;;;;;15.17;10.43;;;1.50;99.90;;;;;;5069741;28;20188;-88
2023/12/07 07:53:46;;;;;;;15.00;12.83;;;1.50;99.90;;;;;;5061204;28;20198;-89
2023/12/07 07:56:12;;;;;;;13.73;10.40;;;1.90;99.90;;;;;;5065604;28;20239;-88
2023/12/07 07:58:37;;;;;;;12.20;10.27;;;1.90;99.90;;;;;;5063662;28;20234;-87
2023/12/07 08:01:03;;;;;;;10.93;9.40;;;1.30;99.90;;;;;;5064736;28;20184;-89
2023/12/07 08:03:28;;;;;;;12.50;9.67;;;1.60;99.90;;;;;;5060993;28;20275;-89
2023/12/07 08:05:54;;;;;;;14.70;11.70;;;1.50;99.90;;;;;;5084268;28;20777;-88
2023/12/07 08:08:20;;;;;;;14.50;10.23;;;1.60;99.90;;;;;;5059499;28;20451;-88
2023/12/07 08:10:45;;;;;;;14.23;10.77;;;1.60;99.90;;;;;;5062419;28;20208;-89
2023/12/07 08:13:11;;;;;;;12.57;10.57;;;1.50;99.90;;;;;;5064396;28;20242;-89
2023/12/07 08:15:37;;;;;;;12.30;9.97;;;1.40;99.90;;;;;;5056757;28;20230;-89
2023/12/07 08:18:02;;;;;;;17.30;8.70;;;2.10;99.90;;;;;;5037289;28;20220;-89
2023/12/07 08:20:28;;;;;;;12.30;10.27;;;1.60;99.90;;;;;;5056713;28;20235;-90
2023/12/07 08:22:53;;;;;;;11.80;9.10;;;1.80;99.90;;;;;;5052705;28;20170;-88
2023/12/07 08:25:19;;;;;;;14.10;10.10;;;1.90;99.90;;;;;;5055207;28;20205;-87
2023/12/07 08:27:45;;;;;;;11.50;9.73;;;1.30;99.90;;;;;;5051155;28;20181;-87
2023/12/07 08:30:13;;;;;;;15.02;10.65;;;1.80;99.90;;;;;;5057750;28;20179;-87
2023/12/07 08:32:39;;;;;;;15.00;11.25;;;2.10;99.90;;;;;;5057787;28;20186;-88
2023/12/07 08:35:08;;;;;;;16.25;10.52;;;1.90;99.90;;;;;;5053784;28;20232;-87
2023/12/07 08:37:38;;;;;;;18.85;11.88;;;2.50;99.90;;;;;;5075781;28;20188;-88
2023/12/07 08:40:05;;;;;;;14.68;10.65;;;1.90;99.90;;;;;;5055592;28;20180;-89
2023/12/07 08:42:34;;;;;;;14.25;10.73;;;1.70;99.90;;;;;;5055321;28;20205;-89
2023/12/07 08:45:09;;;;;;;;;;;;;;;;;;;;;
2023/12/07 08:47:35;;;;;;;15.93;11.45;;;2.00;99.90;;;;;;5075249;28;20209;-89
2023/12/07 08:50:01;;;;;;;13.73;10.68;;;2.00;99.90;;;;;;5058386;28;20178;-88
2023/12/07 08:52:27;;;;;;;13.73;11.70;;;2.40;99.90;;;;;;5053445;28;20612;-89
2023/12/07 08:54:52;;;;;;;13.37;10.63;;;1.90;99.90;;;;;;5054181;28;20205;-88
2023/12/07 08:57:19;;;;;;;11.57;9.75;;;3.90;99.90;;;;;;5073165;28;20678;-90
2023/12/07 08:59:46;;;;;;;11.00;9.80;;;;;;;;;;5041424;28;20201;-89
2023/12/07 09:02:11;;;;;;;14.23;9.50;;;2.60;99.90;;;;;;5056815;28;20187;-90
2023/12/07 09:04:39;;;;;;;11.52;10.15;;;2.70;99.90;;;;;;5080974;28;20218;-90
2023/12/07 09:07:05;;;;;;;12.75;9.30;;;3.40;99.90;;;;;;5062615;28;20584;-90
2023/12/07 09:09:31;;;;;;;13.30;10.50;;;2.80;99.90;;;;;;5057321;28;20227;-89
2023/12/07 09:11:57;;;;;;;12.60;9.70;;;3.00;99.90;;;;;;5065071;28;20215;-87
2023/12/07 09:14:22;;;;;;;14.83;11.03;;;3.00;99.90;;;;;;5058513;28;20579;-88
2023/12/07 09:16:49;;;;;;;12.10;10.80;;;3.40;99.90;;;;;;5063186;28;20566;-87
2023/12/07 09:19:14;;;;;;;12.68;10.65;;;3.50;99.90;;;;;;5050375;28;20223;-87
2023/12/07 09:21:41;;;;;;;12.20;9.90;;;4.50;99.90;;;;;;5059124;28;20177;-87
2023/12/07 09:24:07;;;;;;;10.80;9.25;;;6.00;99.90;;;;;;5062323;28;20204;-87
2023/12/07 09:26:34;;;;;;;9.47;8.53;;;7.50;99.90;;;;;;5066387;28;20279;-87
2023/12/07 09:28:59;;;;;;;8.30;7.25;;;9.00;99.90;;;;;;5080062;28;20440;-88
2023/12/07 09:31:25;;;;;;;8.17;7.40;;;9.60;98.40;;;;;;5070307;28;20249;-88
2023/12/07 09:33:53;;;;;;;8.10;6.90;;;10.50;94.90;;;;;;5060291;28;20204;-89
2023/12/07 09:36:23;;;;;;;10.20;7.60;;;10.70;92.90;;;;;;5065543;28;20191;-84
2023/12/07 09:38:56;;;;;;;8.50;7.60;;;11.00;91.50;;;;;;5051298;28;20200;-84
2023/12/07 09:41:24;;;;;;;7.13;6.43;;;11.10;91.10;;;;;;5087882;28;20191;-84
2023/12/07 09:49:00;;;;;;;7.90;7.10;;;9.50;94.10;;;;;;5452428;22;20225;-89
2023/12/07 09:51:27;;;;;;;8.57;7.73;;;7.50;94.70;;;;;;5047731;28;20196;-89
2023/12/07 09:53:58;;;;;;;8.43;7.63;;;9.50;93.90;;;;;;5049266;28;20245;-86
2023/12/07 09:56:27;;;;;;;8.52;7.55;;;9.80;95.90;;;;;;5049879;28;20268;-86
2023/12/07 09:58:57;;;;;;;8.68;7.78;;;11.90;96.80;;;;;;5041543;28;20247;-86
2023/12/07 10:01:34;;;;;;;11.27;9.93;;;12.00;93.70;;;;;;5054748;28;20177;-87
2023/12/07 10:04:22;;;;;;;9.82;8.60;;;9.60;92.60;;;;;;5051873;28;20187;-85
2023/12/07 10:06:47;;;;;;;8.82;7.93;;;8.50;95.00;;;;;;5056578;28;20170;-86
2023/12/07 10:09:13;;;;;;;11.80;8.60;;;7.60;98.00;;;;;;5061431;28;20257;-87
2023/12/07 10:11:40;;;;;;;8.25;7.20;;;8.20;98.10;;;;;;5057503;28;20413;-86
2023/12/07 10:14:09;;;;;;;8.65;7.80;;;10.20;97.60;;;;;;5056254;28;20193;-87
2023/12/07 10:16:36;;;;;;;9.38;7.20;;;8.40;96.10;;;;;;5041244;28;20190;-88
2023/12/07 10:19:17;;;;;;;8.18;7.30;;;8.30;97.10;;;;;;5051494;28;20229;-86
2023/12/07 10:21:45;;;;;;;9.60;8.60;;;8.20;96.80;;;;;;5052597;28;20217;-89
2023/12/07 10:24:11;;;;;;;9.85;7.53;;;8.70;96.70;;;;;;5045330;28;20207;-89
2023/12/07 10:26:40;;;;;;;7.90;7.10;;;9.30;95.10;;;;;;5044884;28;20185;-89
2023/12/07 10:29:06;;;;;;;8.82;7.93;;;9.80;94.90;;;;;;5040863;28;20645;-89
2023/12/07 10:31:32;;;;;;;9.73;8.83;;;12.00;93.00;;;;;;5033519;28;20193;-88
2023/12/07 10:33:59;;;;;;;8.00;7.20;;;13.00;92.80;;;;;;5038521;28;20502;-89
2023/12/07 10:36:25;;;;;;;8.43;7.63;;;11.30;90.30;;;;;;5036115;28;20177;-89
2023/12/07 10:38:51;;;;;;;11.20;7.97;;;11.40;90.70;;;;;;5039510;28;20209;-88
2023/12/07 10:41:22;;;;;;;6.65;6.00;;;13.60;90.60;;;;;;5039558;28;20177;-89
2023/12/07 10:43:58;;;;;;;6.90;6.20;;;11.20;86.90;;;;;;5056459;28;20677;-90
2023/12/07 10:46:24;;;;;;;8.18;6.82;;;11.50;85.50;;;;;;5061715;28;20177;-88
2023/12/07 10:48:59;;;;;;;8.38;7.07;;;12.50;88.00;;;;;;5045411;28;20211;-88
2023/12/07 10:52:06;;;;;;;9.13;8.23;;;12.00;87.20;;;;;;5031956;28;20277;-88
2023/12/07 10:54:46;;;;;;;4.75;4.35;;;13.40;86.30;;;;;;4971147;28;20267;-88
2023/12/07 10:57:14;;;;;;;5.35;4.82;;;11.60;78.90;;;;;;5049429;28;20213;-88
2023/12/07 10:59:44;;;;;;;7.80;6.07;;;12.00;76.40;;;;;;5034556;28;20681;-89
2023/12/07 11:02:14;;;;;;;9.80;5.90;;;11.00;74.60;;;;;;5048878;28;20197;-90
2023/12/07 11:04:42;;;;;;;5.85;4.43;;;11.30;76.20;;;;;;5036094;28;20201;-90
2023/12/07 11:07:15;;;;;;;4.68;4.25;;;10.60;75.70;;;;;;5067863;28;20184;-89
2023/12/07 11:09:53;;;;;;;4.43;4.03;;;11.70;77.40;;;;;;5038929;28;20185;-89
2023/12/07 11:12:33;;;;;;;7.13;5.65;;;12.00;76.20;;;;;;5049957;28;20272;-89
2023/12/07 11:14:58;;;;;;;5.28;4.78;;;10.90;74.30;;;;;;5057852;28;20205;-88
2023/12/07 11:17:26;;;;;;;10.20;6.60;;;11.80;75.70;;;;;;5069129;28;20235;-88
2023/12/07 11:19:59;;;;;;;4.97;4.45;;;12.30;76.00;;;;;;5054572;28;20285;-89
2023/12/07 11:22:26;;;;;;;4.55;4.00;;;11.60;74.30;;;;;;5057163;28;20188;-88
2023/12/07 11:25:00;;;;;;;3.55;3.20;;;10.80;73.50;;;;;;5049871;28;20201;-88
2023/12/07 11:27:30;;;;;;;6.38;4.03;;;12.30;72.60;;;;;;5040288;28;20189;-88
2023/12/07 11:30:00;;;;;;;3.88;3.58;;;12.90;73.00;;;;;;5034305;28;20627;-87
2023/12/07 11:32:27;;;;;;;3.72;3.42;;;11.00;68.70;;;;;;5036862;28;20209;-88
2023/12/07 11:34:52;;;;;;;3.17;2.92;;;13.00;70.60;;;;;;5042768;28;20363;-89
2023/12/07 11:37:19;;;;;;;3.13;2.83;;;10.70;69.30;;;;;;5038459;28;20184;-89
2023/12/07 11:39:47;;;;;;;3.60;3.30;;;11.10;67.10;;;;;;5035155;28;20227;-88
2023/12/07 11:42:19;;;;;;;3.38;3.08;;;10.90;69.30;;;;;;5048819;28;20204;-89
2023/12/07 11:44:52;;;;;;;4.43;3.22;;;10.70;69.90;;;;;;5058269;28;20193;-89
2023/12/07 11:47:20;;;;;;;3.53;2.85;;;10.20;72.30;;;;;;5057122;28;20243;-88
2023/12/07 11:49:47;;;;;;;3.45;2.60;;;11.90;75.90;;;;;;5036295;28;20196;-88
2023/12/07 11:52:17;;;;;;;3.42;2.50;;;10.20;71.50;;;;;;5035437;28;20290;-88
2023/12/07 11:54:46;;;;;;;3.30;3.00;;;9.80;72.00;;;;;;5061569;28;20207;-90
2023/12/07 11:57:15;;;;;;;3.13;2.22;;;10.40;71.20;;;;;;5057540;28;20204;-90
2023/12/07 11:59:43;;;;;;;6.22;2.83;;;10.20;70.40;;;;;;5057409;28;20245;-88
2023/12/07 12:02:11;;;;;;;2.30;2.10;;;10.00;71.30;;;;;;5016201;28;20184;-89
2023/12/07 12:04:38;;;;;;;3.10;2.70;;;9.90;70.30;;;;;;5035544;28;20205;-90
2023/12/07 12:07:03;;;;;;;3.00;2.70;;;9.60;71.10;;;;;;5041606;28;20265;-90
2023/12/07 12:09:29;;;;;;;2.70;2.50;;;10.20;70.80;;;;;;5041742;28;20182;-90
2023/12/07 12:12:00;;;;;;;3.87;2.67;;;9.80;72.90;;;;;;5037512;28;20816;-89
2023/12/07 12:14:26;;;;;;;3.25;2.85;;;9.20;72.50;;;;;;5024343;28;20784;-90
2023/12/07 12:16:52;;;;;;;3.15;2.60;;;9.50;74.60;;;;;;5061224;28;20193;-90
2023/12/07 12:19:18;;;;;;;2.93;2.60;;;9.40;74.60;;;;;;5053413;28;20198;-90
2023/12/07 12:21:44;;;;;;;2.67;2.47;;;9.10;75.60;;;;;;5036211;28;20188;-89
2023/12/07 12:24:11;;;;;;;3.17;2.90;;;8.80;76.40;;;;;;5045346;28;20202;-89
2023/12/07 12:26:41;;;;;;;3.20;2.90;;;8.70;77.80;;;;;;5042188;28;20186;-90
2023/12/07 12:29:08;;;;;;;4.20;3.42;;;8.80;79.40;;;;;;5050888;28;20186;-90
2023/12/07 12:31:35;;;;;;;8.98;3.63;;;8.00;80.80;;;;;;5054267;28;20177;-89
2023/12/07 12:34:02;;;;;;;4.18;3.78;;;8.00;81.80;;;;;;5042623;28;20232;-90
2023/12/07 12:36:28;;;;;;;4.03;3.67;;;8.30;82.60;;;;;;5038766;28;20196;-90
2023/12/07 12:38:54;;;;;;;4.40;3.85;;;7.90;82.90;;;;;;5032395;28;20217;-89
2023/12/07 12:41:20;;;;;;;4.60;4.20;;;8.30;83.80;;;;;;5039361;28;20197;-89
2023/12/07 12:43:46;;;;;;;5.00;4.10;;;7.90;84.50;;;;;;5052483;28;20463;-89
2023/12/07 12:46:14;;;;;;;5.07;4.13;;;8.30;85.60;;;;;;5033541;28;20563;-90
2023/12/07 12:48:59;;;;;;;5.43;4.20;;;7.80;84.70;;;;;;5037773;28;20205;-90
2023/12/07 12:51:26;;;;;;;5.15;4.65;;;7.60;86.10;;;;;;5039202;28;20195;-91
2023/12/07 12:53:53;;;;;;;5.00;4.18;;;7.90;86.80;;;;;;5383664;22;20225;-90
2023/12/07 12:56:21;;;;;;;6.20;4.82;;;8.20;87.20;;;;;;5052536;28;20239;-90